Time;durP1;ratioP1;P1;durP2;ratioP2;P2;SDS_P1;SDS_P2;PMS_P1;PMS_P2;Temp;Humidity;BMP_temperature;BMP_pressure;BME280_temperature;BME280_humidity;BME280_pressure;Samples;Min_cycle;Max_cycle;Signal;HPM_P1;HPM_P2
2023/05/02 00:01:19;;;;;;;11.02;8.00;;;;;;;8.25;100.00;93399.28;5127037;28;20046;-73
2023/05/02 00:03:46;;;;;;;9.63;7.60;;;;;;;8.35;100.00;93416.06;5127640;28;20108;-73
2023/05/02 00:06:13;;;;;;;12.60;9.32;;;;;;;8.17;100.00;93409.69;5117990;28;20350;-73
2023/05/02 00:08:39;;;;;;;11.57;7.75;;;;;;;8.14;100.00;93410.06;5123916;28;20047;-73
2023/05/02 00:11:08;;;;;;;12.40;9.35;;;;;;;8.16;100.00;93413.25;5127240;28;20092;-73
2023/05/02 00:13:34;;;;;;;12.07;7.85;;;;;;;8.17;100.00;93419.94;5126525;28;20096;-73
2023/05/02 00:16:01;;;;;;;9.90;7.47;;;;;;;8.07;100.00;93414.34;5127497;28;20047;-73
2023/05/02 00:18:28;;;;;;;10.90;6.80;;;;;;;7.80;100.00;93419.31;5127108;28;20043;-73
2023/05/02 00:20:55;;;;;;;11.85;8.50;;;;;;;7.70;100.00;93427.31;5127441;28;20055;-73
2023/05/02 00:23:22;;;;;;;13.40;8.75;;;;;;;7.68;100.00;93419.81;5128230;27;20082;-73
2023/05/02 00:25:49;;;;;;;16.58;9.90;;;;;;;7.57;100.00;93420.34;5130918;27;20046;-73
2023/05/02 00:28:17;;;;;;;14.63;9.55;;;;;;;7.64;100.00;93422.94;5130159;27;20050;-73
2023/05/02 00:30:45;;;;;;;12.20;10.05;;;;;;;7.68;100.00;93427.50;5131305;27;20096;-73
2023/05/02 00:33:13;;;;;;;14.45;11.10;;;;;;;7.74;100.00;93418.31;5131205;27;20054;-73
2023/05/02 00:35:40;;;;;;;14.38;10.10;;;;;;;7.67;100.00;93425.91;5131208;27;20086;-74
2023/05/02 00:38:07;;;;;;;12.00;8.68;;;;;;;7.65;100.00;93421.97;5130590;27;20130;-73
2023/05/02 00:40:44;;;;;;;10.05;7.40;;;;;;;7.56;100.00;93426.44;5130663;27;20812;-73
2023/05/02 00:43:10;;;;;;;10.63;7.85;;;;;;;7.37;100.00;93420.19;5097919;27;20332;-74
2023/05/02 00:45:40;;;;;;;10.40;7.43;;;;;;;7.40;100.00;93420.59;5126782;27;20044;-73
2023/05/02 00:48:07;;;;;;;9.70;7.75;;;;;;;7.52;100.00;93425.22;5130963;27;20043;-73
2023/05/02 00:50:37;;;;;;;9.65;6.75;;;;;;;7.55;100.00;93424.84;5130700;27;20130;-73
2023/05/02 00:53:04;;;;;;;11.13;7.93;;;;;;;7.56;100.00;93429.00;5130698;27;20053;-73
2023/05/02 00:55:32;;;;;;;11.43;8.52;;;;;;;7.60;100.00;93427.66;5130032;27;20050;-73
2023/05/02 00:58:00;;;;;;;12.13;7.18;;;;;;;7.60;100.00;93428.41;5130472;27;20082;-73
2023/05/02 01:00:37;;;;;;;10.40;6.72;;;;;;;7.59;100.00;93426.06;5130139;27;20124;-73
2023/05/02 01:03:17;;;;;;;9.02;6.65;;;;;;;7.54;100.00;93421.50;5130298;27;20513;-73
2023/05/02 01:05:54;;;;;;;11.00;6.80;;;;;;;7.46;100.00;93408.88;5129946;27;20043;-73
2023/05/02 01:08:31;;;;;;;9.20;5.93;;;;;;;7.52;100.00;93415.78;5130143;27;20044;-73
2023/05/02 01:11:05;;;;;;;7.70;6.30;;;;;;;7.47;100.00;93407.88;5105924;27;20108;-73
2023/05/02 01:13:35;;;;;;;9.27;6.15;;;;;;;7.41;100.00;93419.63;5129868;27;20063;-73
2023/05/02 01:16:03;;;;;;;10.52;6.07;;;;;;;7.40;100.00;93428.28;5130312;27;20043;-73
2023/05/02 01:18:36;;;;;;;10.75;7.95;;;;;;;7.33;100.00;93425.66;5129790;27;20083;-73
2023/05/02 01:21:07;;;;;;;9.07;6.88;;;;;;;7.17;100.00;93408.03;5130277;27;20066;-73
2023/05/02 01:23:43;;;;;;;11.75;8.32;;;;;;;7.22;100.00;93418.47;5129642;27;20054;-73
2023/05/02 01:26:29;;;;;;;13.30;7.90;;;;;;;7.24;100.00;93425.97;5129599;27;20175;-73
2023/05/02 01:29:00;;;;;;;12.20;9.32;;;;;;;7.21;100.00;93414.34;5129841;27;20047;-73
2023/05/02 01:31:29;;;;;;;16.65;8.57;;;;;;;7.11;100.00;93419.78;5129765;27;20069;-73
2023/05/02 01:33:58;;;;;;;12.68;9.05;;;;;;;7.04;100.00;93417.16;5129725;27;20047;-73
2023/05/02 01:36:30;;;;;;;11.30;7.53;;;;;;;7.07;100.00;93421.91;5128874;27;20039;-73
2023/05/02 01:38:57;;;;;;;10.02;7.95;;;;;;;7.16;100.00;93419.22;5129326;27;20043;-73
2023/05/02 01:41:27;;;;;;;12.80;7.75;;;;;;;7.21;100.00;93420.25;5129439;27;20119;-73
2023/05/02 01:43:57;;;;;;;11.52;7.65;;;;;;;7.26;100.00;93429.94;5130028;27;20116;-73
2023/05/02 01:46:27;;;;;;;12.45;8.02;;;;;;;7.24;100.00;93428.53;5124928;27;20514;-73
2023/05/02 01:48:57;;;;;;;11.10;7.78;;;;;;;7.22;100.00;93426.16;5129299;27;20051;-73
2023/05/02 01:51:30;;;;;;;10.70;7.43;;;;;;;7.22;100.00;93426.94;5129465;27;20411;-73
2023/05/02 01:54:01;;;;;;;13.77;8.35;;;;;;;7.20;100.00;93423.78;5128935;27;20126;-73
2023/05/02 01:56:31;;;;;;;11.13;7.70;;;;;;;7.15;100.00;93420.19;5129686;27;20457;-73
2023/05/02 01:59:00;;;;;;;11.10;7.50;;;;;;;7.09;100.00;93421.72;5129088;27;20126;-73
2023/05/02 02:01:29;;;;;;;9.18;6.93;;;;;;;7.00;100.00;93423.63;5128785;27;20075;-73
2023/05/02 02:03:58;;;;;;;11.75;7.32;;;;;;;7.01;100.00;93426.94;5128871;27;20051;-73
2023/05/02 02:06:26;;;;;;;12.30;7.55;;;;;;;6.96;100.00;93427.50;5129324;27;20047;-73
2023/05/02 02:08:53;;;;;;;13.38;8.23;;;;;;;6.87;100.00;93419.16;5128164;27;20552;-73
2023/05/02 02:11:26;;;;;;;10.48;7.28;;;;;;;6.82;100.00;93424.03;5129382;27;20047;-74
2023/05/02 02:13:59;;;;;;;12.45;6.93;;;;;;;6.76;100.00;93424.75;5128712;27;20035;-74
2023/05/02 02:16:33;;;;;;;11.98;7.40;;;;;;;6.64;100.00;93420.13;5128856;27;20039;-74
2023/05/02 02:19:06;;;;;;;10.43;6.93;;;;;;;6.62;100.00;93419.47;5128691;27;20047;-73
2023/05/02 02:21:34;;;;;;;10.60;7.90;;;;;;;6.58;100.00;93420.84;5128528;27;20047;-73
2023/05/02 02:24:04;;;;;;;10.25;7.70;;;;;;;6.51;100.00;93425.06;5128547;27;20048;-73
2023/05/02 02:26:31;;;;;;;11.45;8.00;;;;;;;6.52;100.00;93432.53;5128956;27;20713;-74
2023/05/02 02:28:57;;;;;;;13.80;9.15;;;;;;;6.55;100.00;93439.03;5128558;27;20050;-74
2023/05/02 02:31:30;;;;;;;13.55;9.90;;;;;;;6.54;100.00;93440.78;5128472;27;20066;-73
2023/05/02 02:33:58;;;;;;;12.10;10.30;;;;;;;6.47;100.00;93434.06;5128799;27;20047;-73
2023/05/02 02:36:31;;;;;;;16.90;11.05;;;;;;;6.38;100.00;93441.78;5117643;27;20627;-74
2023/05/02 02:39:07;;;;;;;17.23;11.93;;;;;;;6.11;100.00;93446.56;5128721;27;20774;-72
2023/05/02 02:41:42;;;;;;;27.92;15.57;;;;;;;5.97;100.00;93439.69;5128775;27;20051;-72
2023/05/02 02:44:22;;;;;;;30.05;16.02;;;;;;;5.81;100.00;93423.56;5128393;27;20418;-72
2023/05/02 02:47:01;;;;;;;18.33;12.07;;;;;;;5.84;100.00;93435.19;5128606;27;20050;-72
2023/05/02 02:49:38;;;;;;;16.45;11.23;;;;;;;5.45;100.00;93402.06;5128747;27;20431;-72
2023/05/02 02:52:10;;;;;;;15.60;9.52;;;;;;;5.72;100.00;93425.41;5128309;27;20039;-72
2023/05/02 02:54:43;;;;;;;17.27;10.95;;;;;;;5.57;100.00;93420.28;5128342;27;20055;-72
2023/05/02 02:57:17;;;;;;;16.17;11.55;;;;;;;5.77;100.00;93429.97;5128568;27;20043;-72
2023/05/02 02:59:58;;;;;;;18.23;11.52;;;;;;;5.92;100.00;93439.41;5128667;27;20130;-72
2023/05/02 03:02:29;;;;;;;15.98;10.45;;;;;;;6.05;100.00;93446.47;5128329;27;20039;-73
2023/05/02 03:04:57;;;;;;;17.27;12.23;;;;;;;5.93;100.00;93418.03;5128115;27;20043;-72
2023/05/02 03:07:27;;;;;;;13.85;9.88;;;;;;;5.98;100.00;93443.81;5128491;27;20043;-72
2023/05/02 03:09:54;;;;;;;16.15;10.82;;;;;;;6.04;100.00;93438.03;5127993;27;20051;-72
2023/05/02 03:12:21;;;;;;;17.70;11.15;;;;;;;6.06;100.00;93433.53;5128494;27;20091;-72
2023/05/02 03:14:48;;;;;;;15.13;11.43;;;;;;;6.09;100.00;93435.75;5128444;27;20051;-72
2023/05/02 03:17:15;;;;;;;17.00;10.77;;;;;;;6.17;100.00;93434.88;5127715;27;20511;-72
2023/05/02 03:19:41;;;;;;;20.20;11.32;;;;;;;6.23;100.00;93438.47;5127980;27;20491;-72
2023/05/02 03:22:09;;;;;;;19.25;12.93;;;;;;;6.22;100.00;93442.78;5128334;27;20778;-72
2023/05/02 03:24:36;;;;;;;23.63;14.52;;;;;;;6.18;100.00;93441.53;5128154;27;20043;-72
2023/05/02 03:27:03;;;;;;;20.80;12.15;;;;;;;6.09;100.00;93419.63;5127863;27;20515;-72
2023/05/02 03:29:30;;;;;;;19.02;11.65;;;;;;;6.20;100.00;93438.81;5124516;27;20437;-72
2023/05/02 03:31:57;;;;;;;22.33;11.93;;;;;;;6.18;100.00;93441.53;5128211;27;20071;-72
2023/05/02 03:34:23;;;;;;;15.65;10.07;;;;;;;6.15;100.00;93447.00;5128011;27;20051;-72
2023/05/02 03:36:50;;;;;;;16.17;9.88;;;;;;;6.09;100.00;93437.50;5128236;27;20451;-72
2023/05/02 03:39:18;;;;;;;16.75;10.15;;;;;;;6.08;100.00;93441.00;5127889;27;20495;-72
2023/05/02 03:41:45;;;;;;;14.85;8.73;;;;;;;6.07;100.00;93449.63;5128127;27;20448;-72
2023/05/02 03:44:12;;;;;;;14.85;8.90;;;;;;;6.13;100.00;93444.63;5127780;27;20055;-72
2023/05/02 03:46:38;;;;;;;16.67;8.82;;;;;;;6.14;100.00;93441.13;5127707;27;20047;-72
2023/05/02 03:49:05;;;;;;;15.35;10.02;;;;;;;6.22;100.00;93444.53;5127453;27;20050;-72
2023/05/02 03:51:33;;;;;;;21.13;10.90;;;;;;;6.28;100.00;93446.38;5125553;27;20514;-72
2023/05/02 03:54:01;;;;;;;19.88;11.30;;;;;;;6.17;100.00;93423.84;5116227;28;20055;-72
2023/05/02 03:56:29;;;;;;;17.95;10.02;;;;;;;6.38;100.00;93441.78;5127326;27;20051;-72
2023/05/02 03:58:56;;;;;;;19.95;10.68;;;;;;;6.44;100.00;93447.97;5129867;27;20054;-72
2023/05/02 04:01:23;;;;;;;14.23;10.02;;;;;;;6.52;100.00;93447.84;5132007;27;20411;-72
2023/05/02 04:03:52;;;;;;;15.98;9.52;;;;;;;6.58;100.00;93446.34;5130842;27;20047;-72
2023/05/02 04:06:18;;;;;;;16.92;10.23;;;;;;;6.59;100.00;93442.84;5131586;27;20118;-72
2023/05/02 04:08:45;;;;;;;18.13;10.32;;;;;;;6.65;100.00;93454.06;5131077;27;20043;-72
2023/05/02 04:11:12;;;;;;;25.30;12.57;;;;;;;6.68;100.00;93454.50;5131519;27;20043;-72
2023/05/02 04:13:40;;;;;;;26.10;13.63;;;;;;;6.74;100.00;93449.66;5130909;27;20043;-72
2023/05/02 04:16:07;;;;;;;34.38;17.30;;;;;;;6.77;100.00;93457.72;5131014;27;20426;-72
2023/05/02 04:18:34;;;;;;;26.42;14.98;;;;;;;6.83;100.00;93456.25;5130567;27;20039;-72
2023/05/02 04:21:03;;;;;;;25.38;14.35;;;;;;;6.81;100.00;93441.09;5131562;27;20063;-72
2023/05/02 04:23:30;;;;;;;31.90;15.02;;;;;;;7.00;100.00;93449.16;5131823;27;20565;-73
2023/05/02 04:25:57;;;;;;;21.55;13.70;;;;;;;7.07;100.00;93455.13;5131413;27;20436;-72
2023/05/02 04:28:24;;;;;;;23.50;13.93;;;;;;;7.18;100.00;93458.16;5131629;27;20048;-72
2023/05/02 04:30:52;;;;;;;36.08;21.02;;;;;;;7.27;100.00;93448.63;5131314;27;20468;-72
2023/05/02 04:33:19;;;;;;;30.90;17.85;;;;;;;7.43;100.00;93461.16;5131043;27;20078;-73
2023/05/02 04:35:46;;;;;;;28.90;16.05;;;;;;;7.59;100.00;93466.97;5131536;27;20052;-73
2023/05/02 04:38:12;;;;;;;25.65;14.57;;;;;;;7.70;100.00;93468.22;5131401;27;20047;-73
2023/05/02 04:40:39;;;;;;;22.75;13.93;;;;;;;7.71;100.00;93454.47;5131634;27;20432;-73
2023/05/02 04:43:06;;;;;;;21.90;11.82;;;;;;;7.85;100.00;93470.69;5130532;27;20546;-73
2023/05/02 04:45:35;;;;;;;19.08;11.68;;;;;;;7.96;100.00;93459.19;5130865;27;20058;-72
2023/05/02 04:48:03;;;;;;;19.88;12.13;;;;;;;8.10;100.00;93458.25;5130166;27;20055;-73
2023/05/02 04:50:31;;;;;;;18.10;10.93;;;;;;;8.30;100.00;93462.72;5123917;27;20040;-73
2023/05/02 04:52:58;;;;;;;20.00;11.85;;;;;;;8.43;100.00;93449.97;5117842;27;20621;-73
2023/05/02 04:55:24;;;;;;;19.05;10.20;;;;;;;8.55;100.00;93459.69;5130476;27;20043;-73
2023/05/02 04:57:51;;;;;;;18.60;10.73;;;;;;;8.73;100.00;93466.88;5130686;27;20132;-73
2023/05/02 05:00:18;;;;;;;15.95;9.80;;;;;;;8.83;100.00;93458.81;5130512;27;20039;-73
2023/05/02 05:02:45;;;;;;;16.73;10.27;;;;;;;9.04;100.00;93465.59;5130014;27;20046;-73
2023/05/02 05:05:13;;;;;;;15.60;9.90;;;;;;;9.18;100.00;93470.75;5130330;27;20075;-73
2023/05/02 05:07:40;;;;;;;22.52;12.55;;;;;;;9.20;100.00;93476.44;5130589;27;20047;-73
2023/05/02 05:10:10;;;;;;;18.13;13.25;;;;;;;9.20;100.00;93461.06;5128323;27;20559;-73
2023/05/02 05:12:37;;;;;;;20.63;13.80;;;;;;;9.30;100.00;93474.31;5118834;27;20411;-73
2023/05/02 05:15:04;;;;;;;22.10;14.05;;;;;;;9.23;100.00;93469.16;5130182;27;20043;-73
2023/05/02 05:17:30;;;;;;;15.23;10.35;;;;;;;9.21;100.00;93475.47;5130260;27;20047;-73
2023/05/02 05:19:57;;;;;;;13.95;9.88;;;;;;;9.38;100.00;93478.47;5130444;27;20051;-72
2023/05/02 05:22:25;;;;;;;13.18;9.35;;;;;;;9.57;100.00;93476.09;5130260;27;20431;-72
2023/05/02 05:24:53;;;;;;;15.95;9.52;;;;;;;9.68;100.00;93475.50;5125846;27;20566;-73
2023/05/02 05:27:20;;;;;;;12.55;8.40;;;;;;;9.69;100.00;93477.13;5116313;27;20039;-73
2023/05/02 05:29:47;;;;;;;12.75;9.00;;;;;;;9.92;100.00;93478.50;5129763;27;20083;-72
2023/05/02 05:32:13;;;;;;;12.85;8.80;;;;;;;10.09;100.00;93484.00;5129239;27;20079;-73
2023/05/02 05:34:40;;;;;;;15.93;10.35;;;;;;;10.17;100.00;93485.56;5129923;27;20051;-73
2023/05/02 05:37:07;;;;;;;17.40;11.38;;;;;;;10.40;100.00;93477.44;5129466;27;20134;-73
2023/05/02 05:39:35;;;;;;;16.08;9.82;;;;;;;10.71;100.00;93489.81;5129653;27;20043;-73
2023/05/02 05:42:02;;;;;;;12.73;8.50;;;;;;;10.87;100.00;93491.16;5129190;27;20045;-73
2023/05/02 05:44:30;;;;;;;17.50;9.88;;;;;;;11.01;100.00;93484.16;5129173;27;20127;-73
2023/05/02 05:46:57;;;;;;;18.15;10.15;;;;;;;10.88;100.00;93492.72;5129532;27;20139;-73
2023/05/02 05:49:24;;;;;;;21.38;11.93;;;;;;;11.24;100.00;93499.06;5129171;27;20092;-74
2023/05/02 05:51:51;;;;;;;31.10;12.75;;;;;;;11.67;100.00;93491.69;5128967;27;20046;-74
2023/05/02 05:54:18;;;;;;;20.55;11.82;;;;;;;12.02;100.00;93497.16;5129533;27;20100;-73
2023/05/02 05:56:46;;;;;;;28.95;12.82;;;;;;;11.92;100.00;93483.16;5129856;27;20136;-73
2023/05/02 05:59:13;;;;;;;23.35;10.88;;;;;;;11.99;100.00;93497.56;5128663;27;20568;-74
2023/05/02 06:01:40;;;;;;;20.98;10.95;;;;;;;12.00;100.00;93496.56;5129375;27;20043;-74
2023/05/02 06:04:07;;;;;;;18.00;9.68;;;;;;;12.24;100.00;93494.22;5129002;27;20051;-73
2023/05/02 06:06:34;;;;;;;14.20;8.70;;;;;;;12.37;100.00;93497.66;5129081;27;20511;-74
2023/05/02 06:09:01;;;;;;;12.27;7.60;;;;;;;12.51;100.00;93499.09;5129109;27;20039;-73
2023/05/02 06:11:28;;;;;;;11.45;7.57;;;;;;;12.59;100.00;93481.78;5128823;27;20047;-74
2023/05/02 06:13:56;;;;;;;12.05;7.68;;;;;;;13.01;100.00;93502.50;5127922;27;20463;-73
2023/05/02 06:16:23;;;;;;;12.57;7.03;;;;;;;13.21;100.00;93498.91;5129092;27;20043;-73
2023/05/02 06:18:52;;;;;;;16.00;6.18;;;;;;;12.89;98.59;93499.09;5102179;27;20035;-74
2023/05/02 06:21:19;;;;;;;11.40;6.95;;;;;;;13.01;98.61;93499.16;5128438;27;20403;-73
2023/05/02 06:23:46;;;;;;;13.65;7.53;;;;;;;13.30;99.24;93497.59;5128890;27;20035;-74
2023/05/02 06:26:13;;;;;;;9.68;6.15;;;;;;;13.85;97.97;93490.69;5128683;27;20403;-74
2023/05/02 06:28:39;;;;;;;12.15;6.28;;;;;;;13.86;93.70;93499.22;5113114;27;20046;-74
2023/05/02 06:31:08;;;;;;;12.60;6.88;;;;;;;14.32;92.33;93493.50;5123647;27;20047;-74
2023/05/02 06:33:35;;;;;;;12.23;5.88;;;;;;;14.17;91.17;93502.50;5128747;27;20135;-74
2023/05/02 06:36:02;;;;;;;11.35;6.18;;;;;;;14.46;91.33;93488.91;5128885;27;20100;-74
2023/05/02 06:38:29;;;;;;;8.15;5.07;;;;;;;14.66;90.10;93481.56;5129068;27;20043;-74
2023/05/02 06:40:56;;;;;;;8.10;5.40;;;;;;;14.66;86.53;93494.50;5128491;27;20063;-74
2023/05/02 06:43:22;;;;;;;12.30;5.80;;;;;;;14.82;89.11;93456.81;5128475;27;20047;-74
2023/05/02 06:45:53;;;;;;;11.68;7.78;;;;;;;15.32;84.44;93474.53;5114765;27;20508;-74
2023/05/02 06:48:21;;;;;;;9.80;5.50;;;;;;;15.31;83.39;93488.47;5128571;27;20449;-74
2023/05/02 06:50:48;;;;;;;8.55;5.45;;;;;;;15.44;82.88;93490.78;5128427;27;20043;-74
2023/05/02 06:53:15;;;;;;;7.03;5.75;;;;;;;15.01;81.23;93479.94;5128299;27;20047;-74
2023/05/02 06:55:42;;;;;;;6.88;5.35;;;;;;;15.26;86.48;93484.00;5128609;27;20047;-74
2023/05/02 06:58:08;;;;;;;12.98;8.80;;;;;;;15.25;81.70;93492.78;5127989;27;20039;-75
2023/05/02 07:00:35;;;;;;;5.32;4.63;;;;;;;15.16;81.18;93488.97;5128240;27;20480;-74
2023/05/02 07:03:02;;;;;;;9.25;6.82;;;;;;;15.46;78.38;93495.75;5128382;27;20047;-74
2023/05/02 07:05:31;;;;;;;7.63;4.47;;;;;;;15.58;79.22;93496.47;5128441;27;20047;-74
2023/05/02 07:07:58;;;;;;;6.50;4.68;;;;;;;15.92;78.38;93487.16;5128429;27;20047;-74
2023/05/02 07:10:25;;;;;;;9.25;4.85;;;;;;;16.12;77.76;93490.03;5127951;27;20050;-75
2023/05/02 07:12:52;;;;;;;8.35;4.55;;;;;;;16.45;79.56;93498.03;5128010;27;20099;-75
2023/05/02 07:15:18;;;;;;;6.65;4.40;;;;;;;16.86;76.44;93471.81;5127963;27;20043;-74
2023/05/02 07:17:46;;;;;;;6.10;4.30;;;;;;;17.57;75.66;93506.59;5127898;27;20500;-75
2023/05/02 07:20:14;;;;;;;7.05;4.22;;;;;;;18.05;72.64;93505.91;5127900;27;20043;-75
2023/05/02 07:22:42;;;;;;;4.75;3.67;;;;;;;18.52;69.14;93512.25;5127966;27;20047;-76
2023/05/02 07:25:10;;;;;;;5.20;3.33;;;;;;;18.81;63.73;93514.50;5128658;27;20047;-75
2023/05/02 07:27:36;;;;;;;6.20;3.17;;;;;;;18.62;60.26;93518.53;5128104;27;20100;-76
2023/05/02 07:30:04;;;;;;;9.52;4.35;;;;;;;18.51;61.89;93492.47;5127858;27;20536;-76
2023/05/02 07:32:31;;;;;;;8.45;4.45;;;;;;;18.40;62.13;93515.03;5130306;27;20051;-76
2023/05/02 07:34:58;;;;;;;5.93;4.03;;;;;;;18.76;63.52;93511.88;5132266;27;20451;-75
2023/05/02 07:37:25;;;;;;;5.05;3.90;;;;;;;19.06;61.95;93509.66;5132088;27;20043;-75
2023/05/02 07:39:53;;;;;;;5.78;3.85;;;;;;;19.30;62.37;93504.78;5132322;27;20466;-75
2023/05/02 07:42:20;;;;;;;7.35;3.55;;;;;;;19.68;61.15;93512.41;5131673;27;20043;-75
2023/05/02 07:44:46;;;;;;;8.40;4.32;;;;;;;18.74;60.91;93513.16;5131865;27;20047;-75
2023/05/02 07:47:13;;;;;;;9.73;4.13;;;;;;;18.07;61.19;93508.31;5132339;27;20478;-75
2023/05/02 07:49:40;;;;;;;6.82;3.90;;;;;;;18.67;60.46;93516.75;5132269;27;20043;-75
2023/05/02 07:52:07;;;;;;;9.50;4.40;;;;;;;18.35;61.98;93514.22;5132302;27;20051;-76
2023/05/02 07:54:34;;;;;;;8.52;3.80;;;;;;;18.86;60.51;93512.94;5132384;27;20043;-75
2023/05/02 07:57:04;;;;;;;6.80;3.35;;;;;;;19.21;58.89;93501.88;5131164;27;20047;-75
2023/05/02 07:59:31;;;;;;;5.28;3.42;;;;;;;19.61;60.34;93504.84;5116635;27;20593;-75
2023/05/02 08:01:57;;;;;;;13.00;4.78;;;;;;;19.96;58.89;93499.13;5113270;27;20047;-75
2023/05/02 08:04:25;;;;;;;11.85;4.05;;;;;;;20.45;58.82;93507.47;5131846;27;20136;-75
2023/05/02 08:06:51;;;;;;;6.88;3.95;;;;;;;20.69;55.34;93505.84;5131284;27;20047;-75
2023/05/02 08:09:18;;;;;;;9.68;4.28;;;;;;;20.70;54.53;93499.56;5131985;27;20075;-76
2023/05/02 08:11:45;;;;;;;7.85;4.07;;;;;;;21.12;57.51;93504.69;5116993;27;20519;-76
2023/05/02 08:14:13;;;;;;;8.27;3.65;;;;;;;21.42;55.90;93502.94;5131684;27;20782;-76
2023/05/02 08:16:40;;;;;;;5.63;3.90;;;;;;;21.69;54.96;93504.34;5130942;27;20096;-76
2023/05/02 08:19:07;;;;;;;10.38;3.60;;;;;;;21.91;52.95;93494.53;5131134;27;20157;-76
2023/05/02 08:21:34;;;;;;;8.48;3.75;;;;;;;22.28;52.57;93506.28;5130708;27;20043;-76
2023/05/02 08:24:01;;;;;;;6.15;3.22;;;;;;;22.13;51.02;93501.97;5130969;27;20495;-76
2023/05/02 08:26:28;;;;;;;12.30;4.68;;;;;;;21.80;53.13;93502.47;5130486;27;20100;-76
2023/05/02 08:28:55;;;;;;;11.27;5.40;;;;;;;21.80;53.08;93486.00;5131393;27;20096;-76
2023/05/02 08:31:23;;;;;;;9.85;5.20;;;;;;;20.92;54.98;93511.53;5130592;27;20495;-76
2023/05/02 08:33:50;;;;;;;12.50;4.80;;;;;;;21.09;54.24;93500.75;5131159;27;20062;-76
2023/05/02 08:36:18;;;;;;;13.82;4.82;;;;;;;21.29;55.10;93509.53;5130534;27;20096;-76
2023/05/02 08:38:46;;;;;;;17.63;5.22;;;;;;;21.22;55.50;93504.63;5130875;27;20415;-76
2023/05/02 08:41:14;;;;;;;11.77;5.30;;;;;;;21.25;53.98;93510.34;5130352;27;20047;-76
2023/05/02 08:43:41;;;;;;;11.18;4.30;;;;;;;21.26;54.84;93514.53;5130459;27;20050;-76
2023/05/02 08:46:10;;;;;;;17.92;4.90;;;;;;;21.19;54.69;93514.81;5116909;27;20055;-76
2023/05/02 08:48:41;;;;;;;12.32;5.65;;;;;;;21.13;56.11;93516.69;5126824;27;20112;-76
2023/05/02 08:51:09;;;;;;;8.10;2.90;;;;;;;21.02;51.40;93502.09;5130002;27;20443;-76
2023/05/02 08:53:40;;;;;;;2.88;1.98;;;;;;;21.15;47.77;93519.03;5129651;27;20099;-76
2023/05/02 08:56:07;;;;;;;3.88;2.60;;;;;;;21.39;51.09;93506.13;5117369;27;20500;-76
2023/05/02 08:58:35;;;;;;;4.28;2.65;;;;;;;21.48;48.81;93506.31;5125377;27;20078;-76
2023/05/02 09:01:03;;;;;;;6.18;3.15;;;;;;;21.33;49.49;93504.56;5122883;27;20089;-76
2023/05/02 09:03:31;;;;;;;4.45;2.78;;;;;;;21.49;50.33;93500.81;5123552;27;20070;-76
2023/05/02 09:06:05;;;;;;;6.68;2.50;;;;;;;21.59;51.59;93499.19;5129682;27;20054;-76
2023/05/02 09:08:33;;;;;;;3.40;2.30;;;;;;;21.72;46.93;93490.75;5128884;27;20047;-76
2023/05/02 09:11:00;;;;;;;4.93;2.50;;;;;;;21.38;47.30;93504.53;5129419;27;20202;-76
2023/05/02 09:13:34;;;;;;;3.90;2.45;;;;;;;20.85;47.80;93507.59;5129507;27;20046;-76
2023/05/02 09:16:03;;;;;;;5.85;2.40;;;;;;;21.35;50.83;93498.00;5129538;27;20047;-76
2023/05/02 09:18:31;;;;;;;4.15;3.17;;;;;;;21.71;49.99;93485.81;5129901;27;20043;-76
2023/05/02 09:20:59;;;;;;;8.68;2.50;;;;;;;21.97;49.19;93486.41;5130101;27;20055;-76
2023/05/02 09:23:35;;;;;;;3.17;2.13;;;;;;;22.23;46.48;93483.56;5129793;27;20043;-75
2023/05/02 09:26:02;;;;;;;5.07;2.33;;;;;;;22.49;46.94;93496.38;5130181;27;20105;-76
2023/05/02 09:28:39;;;;;;;3.10;2.00;;;;;;;22.76;46.54;93492.47;5130357;27;20062;-76
2023/05/02 09:31:07;;;;;;;4.15;1.85;;;;;;;22.87;45.19;93484.50;5129459;27;20517;-77
2023/05/02 09:33:34;;;;;;;2.30;1.77;;;;;;;22.94;44.82;93484.94;5129852;27;20043;-76
2023/05/02 09:36:00;;;;;;;2.70;1.90;;;;;;;22.97;45.10;93484.38;5129538;27;20056;-77
2023/05/02 09:38:27;;;;;;;4.05;2.30;;;;;;;22.98;44.76;93490.38;5129569;27;20108;-76
2023/05/02 09:40:55;;;;;;;5.32;2.50;;;;;;;22.96;44.45;93472.34;5129484;27;20084;-76
2023/05/02 09:43:22;;;;;;;3.15;2.33;;;;;;;22.74;44.86;93486.75;5117435;27;20047;-76
2023/05/02 09:45:57;;;;;;;3.30;2.10;;;;;;;22.61;44.63;93479.53;5128642;27;20468;-77
2023/05/02 09:48:24;;;;;;;4.27;2.20;;;;;;;22.35;43.62;93483.19;5129314;27;20047;-76
2023/05/02 09:50:51;;;;;;;5.13;2.70;;;;;;;22.25;44.92;93478.81;5129452;27;20290;-77
2023/05/02 09:53:17;;;;;;;3.65;2.10;;;;;;;21.97;45.25;93473.31;5128972;27;20456;-76
2023/05/02 09:55:44;;;;;;;3.03;2.45;;;;;;;21.93;44.56;93474.91;5125426;27;20043;-76
2023/05/02 09:58:22;;;;;;;4.90;2.10;;;;;;;21.82;43.68;93471.63;5128989;27;20051;-76
2023/05/02 10:00:50;;;;;;;3.13;1.80;;;;;;;21.54;45.74;93470.47;5129458;27;20078;-76
2023/05/02 10:03:18;;;;;;;3.15;2.30;;;;;;;21.69;46.49;93467.75;5128686;27;20431;-76
2023/05/02 10:05:46;;;;;;;7.40;2.50;;;;;;;21.88;47.08;93460.06;5128482;27;20039;-76
2023/05/02 10:08:14;;;;;;;3.50;2.83;;;;;;;22.05;47.24;93458.06;5128786;27;20043;-76
2023/05/02 10:10:43;;;;;;;3.40;2.55;;;;;;;22.26;47.12;93453.44;5128642;27;20047;-76
2023/05/02 10:13:12;;;;;;;4.55;2.40;;;;;;;22.49;46.71;93451.13;5128970;27;20052;-76
2023/05/02 10:15:43;;;;;;;3.33;2.20;;;;;;;22.50;43.28;93448.22;5129351;27;20089;-76
2023/05/02 10:18:15;;;;;;;2.85;2.20;;;;;;;21.57;44.20;93446.41;5129551;27;20112;-76
2023/05/02 10:20:49;;;;;;;4.18;2.60;;;;;;;21.81;46.90;93445.72;5128715;27;20069;-76
2023/05/02 10:23:17;;;;;;;7.13;2.72;;;;;;;22.02;45.92;93433.25;5103784;27;20043;-76
2023/05/02 10:25:43;;;;;;;9.80;3.05;;;;;;;22.32;45.88;93448.94;5120634;27;20101;-76
2023/05/02 10:28:10;;;;;;;6.80;2.92;;;;;;;22.30;47.12;93441.34;5116709;27;20096;-76
2023/05/02 10:30:38;;;;;;;3.40;2.15;;;;;;;21.99;45.54;93444.28;5126801;27;20399;-76
2023/05/02 10:33:06;;;;;;;4.65;2.30;;;;;;;22.06;46.73;93444.72;5128349;27;20055;-76
2023/05/02 10:35:33;;;;;;;4.53;2.45;;;;;;;22.50;46.31;93427.28;5113677;27;20048;-76
2023/05/02 10:38:01;;;;;;;4.28;3.10;;;;;;;22.88;45.81;93442.31;5107751;27;20746;-76
2023/05/02 10:40:29;;;;;;;3.30;2.33;;;;;;;23.27;44.70;93434.50;5116719;27;20140;-76
2023/05/02 10:43:01;;;;;;;3.63;2.33;;;;;;;22.57;41.94;93442.69;5129679;27;20047;-76
2023/05/02 10:45:32;;;;;;;3.75;2.42;;;;;;;22.96;44.44;93435.69;5127635;27;20096;-76
2023/05/02 10:48:17;;;;;;;5.53;3.15;;;;;;;21.70;43.87;93437.19;5127531;27;20499;-77
2023/05/02 10:50:46;;;;;;;3.72;2.00;;;;;;;22.32;44.98;93434.03;5103887;27;20792;-77
2023/05/02 10:53:33;;;;;;;3.42;2.63;;;;;;;22.29;44.33;93417.03;5124147;27;20500;-76
2023/05/02 10:56:12;;;;;;;3.95;2.20;;;;;;;21.87;43.56;93423.72;5108025;28;20093;-76
2023/05/02 10:58:39;;;;;;;6.35;2.63;;;;;;;22.27;44.85;93434.84;5104257;27;20047;-76
2023/05/02 11:01:38;;;;;;;3.20;2.45;;;;;;;22.43;45.16;93432.84;5128345;27;20495;-76
2023/05/02 11:04:08;;;;;;;3.22;2.17;;;;;;;21.96;43.32;93410.81;5127665;27;20075;-76
2023/05/02 11:06:36;;;;;;;4.38;2.40;;;;;;;21.93;44.57;93434.91;5127937;27;20100;-77
2023/05/02 11:09:34;;;;;;;2.67;2.33;;;;;;;21.99;45.71;93431.97;5128109;27;20047;-76
2023/05/02 11:12:03;;;;;;;7.03;3.45;;;;;;;22.36;46.85;93432.38;5128099;27;20092;-76
2023/05/02 11:14:47;;;;;;;7.10;2.80;;;;;;;22.65;45.63;93412.47;5128069;27;20050;-76
2023/05/02 11:17:14;;;;;;;4.18;2.63;;;;;;;22.96;44.49;93412.88;5100850;27;20050;-76
2023/05/02 11:20:24;;;;;;;2.75;2.00;;;;;;;23.16;42.66;93403.19;5128130;27;20100;-76
2023/05/02 11:22:54;;;;;;;6.72;2.58;;;;;;;23.32;44.78;93397.72;5128050;27;20043;-77
2023/05/02 11:25:37;;;;;;;3.10;2.20;;;;;;;23.45;43.74;93396.22;5101132;28;20045;-76
2023/05/02 11:28:07;;;;;;;2.53;2.08;;;;;;;23.45;41.97;93397.03;5126586;27;20999;-76
2023/05/02 11:30:52;;;;;;;3.30;2.05;;;;;;;23.48;44.07;93367.59;5127868;27;20571;-76
2023/05/02 11:33:19;;;;;;;6.75;3.25;;;;;;;23.23;44.89;93393.13;5127511;27;20047;-76
2023/05/02 11:35:48;;;;;;;6.90;2.10;;;;;;;23.37;43.29;93384.56;5128591;27;20162;-76